aviador You're here:

KONX Decoded Metar

CURRITUCK in NC, USA
Report Time2018-01-17 01:15:00
UTC Time2018-01-17 01:20:53
Flight Rules mvfr MVFR
WindCalm
Visibility8047 m
Phenomena:Mist
Clouds:N/A
CeilingNone
Temp00°C (ISA -15)
Dew Point00°C (100% RH)
AAT-2.0°C
QNH1028 hPa
Density Alt-2,241 ft
Elevation16 ft
Report Wrong Elevation
Raw Report
METAR KONX 170115Z AUTO 00000KT 5SM BR CLR 00/00 A3036 RMK AO2 T00020001=

Extra information for KONX:More info

Metar Taf Metar & Taf Last 4 Metars F.Rules Stats Wind Profile Meteogram Temp Stats Airport Information Weather charts Add Link Nearby VenuesMetar ALERT Operation Metar Decoded Social comments

AIRNAV info for KONX